Vidfoss — V2QK4 — position and weather

sailwx.info

Track history (hours):
 
Tides and Currents Weather Stations Pressure Air Temp Water Temp Dewpoint Dewpoint Depression Visibility Wind Speed Wind Dir Waves Ship Positions

Vidfoss

Last reported at 2014-Nov-22 19:33 UTC. Time now 2014-Nov-23 01:07 UTC.
Position N 55°13' E 012°54'.

Length 93 m; draft 4.1 m.

Type: Cargo ship. MMSI: 305846000.

Date/timePositionNaut miles runAvg speedWind from/ knotsBaromVisibWave heightAir tempDewpointWater temp
2014-Nov-22 19:33N 55°13' E 012°54'1110.8
2014-Nov-22 18:33N 55°19' E 012°38'1111.3
2014-Nov-22 17:33N 55°30' E 012°42'1010.3
2014-Nov-22 16:33N 55°40' E 012°41'1110.7
2014-Nov-22 15:33N 55°51' E 012°40'1111.1
2014-Nov-22 14:33N 56°02' E 012°38'10 9.9
2014-Nov-22 13:33N 56°09' E 012°26'1211.8
2014-Nov-22 12:33N 56°15' E 012°08'7011.5
2014-Nov-22 06:31N 57°21' E 011°25'1311.6
2014-Nov-22 05:23N 57°32' E 011°10'1011.7
2014-Nov-22 04:32N 57°39' E 010°58'1510.9
2014-Nov-22 03:12N 57°48' E 010°36'140 9.3
2014-Nov-21 12:13N 58°03' E 006°15'913.6
2014-Nov-21 11:33N 58°12' E 006°09'1313.4
2014-Nov-21 10:33N 58°21' E 005°50'1411.3
2014-Nov-21 09:21N 58°31' E 005°32'2111.7
2014-Nov-21 07:33N 58°47' E 005°08'  
Track history (hours):
 
Tides and Currents Weather Stations Pressure Air Temp Water Temp Dewpoint Dewpoint Depression Visibility Wind Speed Wind Dir Waves Ship Positions

Vidfoss

Last reported at 2014-Nov-22 19:33 UTC. Time now 2014-Nov-23 01:07 UTC.
Position N 55°13' E 012°54'.

Length 93 m; draft 4.1 m.

Type: Cargo ship. MMSI: 305846000.

Date/timePositionNaut miles runAvg speedWind from/ knotsBaromVisibWave heightAir tempDewpointWater temp
2014-Nov-22 19:33N 55°13' E 012°54'1110.8
2014-Nov-22 18:33N 55°19' E 012°38'1111.3
2014-Nov-22 17:33N 55°30' E 012°42'1010.3
2014-Nov-22 16:33N 55°40' E 012°41'1110.7
2014-Nov-22 15:33N 55°51' E 012°40'1111.1
2014-Nov-22 14:33N 56°02' E 012°38'10 9.9
2014-Nov-22 13:33N 56°09' E 012°26'1211.8
2014-Nov-22 12:33N 56°15' E 012°08'7011.5
2014-Nov-22 06:31N 57°21' E 011°25'1311.6
2014-Nov-22 05:23N 57°32' E 011°10'1011.7
2014-Nov-22 04:32N 57°39' E 010°58'1510.9
2014-Nov-22 03:12N 57°48' E 010°36'140 9.3
2014-Nov-21 12:13N 58°03' E 006°15'913.6
2014-Nov-21 11:33N 58°12' E 006°09'1313.4
2014-Nov-21 10:33N 58°21' E 005°50'1411.3
2014-Nov-21 09:21N 58°31' E 005°32'2111.7
2014-Nov-21 07:33N 58°47' E 005°08'  

Dump ship's entire track history